KEKN/EKN METAR and TAF weather

Enter ICAO airport designator
Station Type Date Time Source
KEKN METAR 2019/04/25 21:51 UTC NOAA

KEKN 252151Z AUTO 34006KT 10SM BKN095 22/12 A2983 RMK AO2 SLP096 T02220122 TSNO


Station Type Date Time Source
KEKN Decoded METAR 2019/04/25 21:51 UTC NOAA

JENNINGS RANDOLPH FIELD, WV, United States (KEKN) 38-53N 079-51W 603M
Apr 25, 2019 - 05:51 PM EDT / 2019.04.25 2151 UTC
Wind: from the NNW (340 degrees) at 7 MPH (6 KT):0
Visibility: 10 mile(s):0
Sky conditions: mostly cloudy
Temperature: 72.0 F (22.2 C)
Dew Point: 54.0 F (12.2 C)
Relative Humidity: 53%
Pressure (altimeter): 29.83 in. Hg (1010 hPa)
ob: KEKN 252151Z AUTO 34006KT 10SM BKN095 22/12 A2983 RMK AO2 SLP096 T02220122 TSNO
cycle: 22

Station Type Date Time Source
KEKN TAF 2019/04/25 18:22 UTC NOAA

TAF KEKN 251720Z 2518/2618 24006KT P6SM BKN100
FM261000 18007KT 6SM SHRA OVC050
FM261400 22013G19KT 5SM SHRA OVC025
FM261600 22015G26KT 4SM RA BR OVC015

Example: see airport list